sensor_id;sensor_type;location;lat;lon;timestamp;pressure;altitude;pressure_sealevel;temperature
66604;BMP280;53460;39.612;8.822;2023-05-07T00:02:24;99900.97;;;17.80
66604;BMP280;53460;39.612;8.822;2023-05-07T00:04:50;99899.31;;;17.65
66604;BMP280;53460;39.612;8.822;2023-05-07T00:07:17;99903.53;;;17.74
66604;BMP280;53460;39.612;8.822;2023-05-07T00:09:43;99905.03;;;17.81
66604;BMP280;53460;39.612;8.822;2023-05-07T00:12:09;99906.28;;;17.76
66604;BMP280;53460;39.612;8.822;2023-05-07T00:14:35;99910.31;;;17.77
66604;BMP280;53460;39.612;8.822;2023-05-07T00:17:00;99908.97;;;17.76
66604;BMP280;53460;39.612;8.822;2023-05-07T00:19:26;99911.41;;;17.62
66604;BMP280;53460;39.612;8.822;2023-05-07T00:21:52;99903.25;;;17.60
66604;BMP280;53460;39.612;8.822;2023-05-07T00:24:19;99909.91;;;17.55
66604;BMP280;53460;39.612;8.822;2023-05-07T00:26:45;99904.34;;;17.47
66604;BMP280;53460;39.612;8.822;2023-05-07T00:29:10;99902.16;;;17.39
66604;BMP280;53460;39.612;8.822;2023-05-07T00:31:36;99897.69;;;17.52
66604;BMP280;53460;39.612;8.822;2023-05-07T00:34:02;99912.50;;;17.51
66604;BMP280;53460;39.612;8.822;2023-05-07T00:36:28;99903.13;;;17.54
66604;BMP280;53460;39.612;8.822;2023-05-07T00:38:56;99888.78;;;17.45
66604;BMP280;53460;39.612;8.822;2023-05-07T00:41:22;99878.88;;;17.22
66604;BMP280;53460;39.612;8.822;2023-05-07T00:43:48;99882.59;;;17.39
66604;BMP280;53460;39.612;8.822;2023-05-07T00:46:13;99879.22;;;17.38
66604;BMP280;53460;39.612;8.822;2023-05-07T00:48:41;99875.88;;;17.40
66604;BMP280;53460;39.612;8.822;2023-05-07T00:51:07;99877.78;;;17.35
66604;BMP280;53460;39.612;8.822;2023-05-07T00:53:33;99882.56;;;17.37
66604;BMP280;53460;39.612;8.822;2023-05-07T00:56:00;99874.22;;;17.25
66604;BMP280;53460;39.612;8.822;2023-05-07T00:58:26;99867.59;;;17.30
66604;BMP280;53460;39.612;8.822;2023-05-07T01:00:52;99864.28;;;17.01
66604;BMP280;53460;39.612;8.822;2023-05-07T01:03:18;99846.00;;;16.68
66604;BMP280;53460;39.612;8.822;2023-05-07T01:05:45;99848.25;;;16.77
66604;BMP280;53460;39.612;8.822;2023-05-07T01:08:12;99836.66;;;16.71
66604;BMP280;53460;39.612;8.822;2023-05-07T01:10:38;99827.50;;;16.54
66604;BMP280;53460;39.612;8.822;2023-05-07T01:13:12;99830.22;;;16.54
66604;BMP280;53460;39.612;8.822;2023-05-07T01:15:40;99828.91;;;16.55
66604;BMP280;53460;39.612;8.822;2023-05-07T01:18:06;99826.63;;;16.45
66604;BMP280;53460;39.612;8.822;2023-05-07T01:20:34;99820.06;;;16.52
66604;BMP280;53460;39.612;8.822;2023-05-07T01:23:00;99812.53;;;16.47
66604;BMP280;53460;39.612;8.822;2023-05-07T01:25:27;99817.22;;;16.44
66604;BMP280;53460;39.612;8.822;2023-05-07T01:27:56;99814.91;;;16.33
66604;BMP280;53460;39.612;8.822;2023-05-07T01:30:27;99818.81;;;16.56
66604;BMP280;53460;39.612;8.822;2023-05-07T01:35:29;99828.75;;;16.49
66604;BMP280;53460;39.612;8.822;2023-05-07T01:37:56;99829.84;;;16.38
66604;BMP280;53460;39.612;8.822;2023-05-07T01:40:23;99820.19;;;16.29
66604;BMP280;53460;39.612;8.822;2023-05-07T01:42:50;99817.44;;;16.27
66604;BMP280;53460;39.612;8.822;2023-05-07T01:45:16;99810.31;;;16.37
66604;BMP280;53460;39.612;8.822;2023-05-07T01:47:42;99816.97;;;16.36
66604;BMP280;53460;39.612;8.822;2023-05-07T01:50:09;99818.47;;;16.41
66604;BMP280;53460;39.612;8.822;2023-05-07T01:52:37;99833.91;;;16.41
66604;BMP280;53460;39.612;8.822;2023-05-07T01:55:03;99835.00;;;16.30
66604;BMP280;53460;39.612;8.822;2023-05-07T01:57:29;99845.75;;;16.30
66604;BMP280;53460;39.612;8.822;2023-05-07T01:59:55;99853.38;;;16.37
66604;BMP280;53460;39.612;8.822;2023-05-07T02:02:20;99858.13;;;16.39
66604;BMP280;53460;39.612;8.822;2023-05-07T02:04:46;99865.84;;;16.52
66604;BMP280;53460;39.612;8.822;2023-05-07T02:07:14;99873.22;;;16.50
66604;BMP280;53460;39.612;8.822;2023-05-07T02:09:39;99881.97;;;16.50
66604;BMP280;53460;39.612;8.822;2023-05-07T02:12:05;99875.97;;;16.54
66604;BMP280;53460;39.612;8.822;2023-05-07T02:14:31;99880.94;;;16.64
66604;BMP280;53460;39.612;8.822;2023-05-07T02:16:57;99884.59;;;16.76
66604;BMP280;53460;39.612;8.822;2023-05-07T02:19:23;99884.72;;;16.80
66604;BMP280;53460;39.612;8.822;2023-05-07T02:21:48;99880.75;;;16.85
66604;BMP280;53460;39.612;8.822;2023-05-07T02:24:15;99865.84;;;16.80
66604;BMP280;53460;39.612;8.822;2023-05-07T02:26:40;99872.59;;;16.81
66604;BMP280;53460;39.612;8.822;2023-05-07T02:29:06;99864.56;;;16.83
66604;BMP280;53460;39.612;8.822;2023-05-07T02:31:33;99870.72;;;16.88
66604;BMP280;53460;39.612;8.822;2023-05-07T02:34:00;99879.00;;;16.96
66604;BMP280;53460;39.612;8.822;2023-05-07T02:36:26;99869.50;;;16.93
66604;BMP280;53460;39.612;8.822;2023-05-07T02:39:18;99878.31;;;16.98
66604;BMP280;53460;39.612;8.822;2023-05-07T02:41:44;99872.25;;;16.97
66604;BMP280;53460;39.612;8.822;2023-05-07T02:44:09;99869.44;;;16.91
66604;BMP280;53460;39.612;8.822;2023-05-07T02:46:36;99871.41;;;16.89
66604;BMP280;53460;39.612;8.822;2023-05-07T02:49:07;99878.25;;;16.94
66604;BMP280;53460;39.612;8.822;2023-05-07T02:51:33;99875.41;;;16.88
66604;BMP280;53460;39.612;8.822;2023-05-07T02:54:01;99882.75;;;16.85
66604;BMP280;53460;39.612;8.822;2023-05-07T02:56:28;99893.66;;;16.89
66604;BMP280;53460;39.612;8.822;2023-05-07T02:58:54;99894.72;;;16.78
66604;BMP280;53460;39.612;8.822;2023-05-07T03:01:22;99892.66;;;16.48
66604;BMP280;53460;39.612;8.822;2023-05-07T03:03:57;99868.44;;;16.48
66604;BMP280;53460;39.612;8.822;2023-05-07T03:06:23;99866.69;;;16.31
66604;BMP280;53460;39.612;8.822;2023-05-07T03:08:48;99863.34;;;16.33
66604;BMP280;53460;39.612;8.822;2023-05-07T03:11:14;99859.22;;;16.30
66604;BMP280;53460;39.612;8.822;2023-05-07T03:13:40;99875.22;;;16.49
66604;BMP280;53460;39.612;8.822;2023-05-07T03:16:06;99870.91;;;16.38
66604;BMP280;53460;39.612;8.822;2023-05-07T03:18:32;99870.81;;;16.36
66604;BMP280;53460;39.612;8.822;2023-05-07T03:20:58;99866.91;;;16.41
66604;BMP280;53460;39.612;8.822;2023-05-07T03:23:23;99858.69;;;16.35
66604;BMP280;53460;39.612;8.822;2023-05-07T03:25:49;99852.91;;;16.19
66604;BMP280;53460;39.612;8.822;2023-05-07T03:28:15;99856.28;;;16.20
66604;BMP280;53460;39.612;8.822;2023-05-07T03:30:49;99848.44;;;16.30
66604;BMP280;53460;39.612;8.822;2023-05-07T03:33:15;99845.41;;;16.15
66604;BMP280;53460;39.612;8.822;2023-05-07T03:35:41;99844.03;;;16.12
66604;BMP280;53460;39.612;8.822;2023-05-07T03:38:07;99849.44;;;16.14
66604;BMP280;53460;39.612;8.822;2023-05-07T03:40:35;99856.22;;;16.17
66604;BMP280;53460;39.612;8.822;2023-05-07T03:43:02;99867.63;;;16.16
66604;BMP280;53460;39.612;8.822;2023-05-07T03:45:30;99862.19;;;15.88
66604;BMP280;53460;39.612;8.822;2023-05-07T03:48:16;99858.66;;;15.81
66604;BMP280;53460;39.612;8.822;2023-05-07T03:50:42;99844.75;;;15.65
66604;BMP280;53460;39.612;8.822;2023-05-07T03:53:07;99841.91;;;15.59
66604;BMP280;53460;39.612;8.822;2023-05-07T03:55:37;99838.91;;;15.47
66604;BMP280;53460;39.612;8.822;2023-05-07T03:58:04;99840.94;;;15.48
66604;BMP280;53460;39.612;8.822;2023-05-07T04:00:30;99834.06;;;15.43
66604;BMP280;53460;39.612;8.822;2023-05-07T04:02:59;99824.28;;;15.54
66604;BMP280;53460;39.612;8.822;2023-05-07T04:05:28;99821.69;;;15.56
66604;BMP280;53460;39.612;8.822;2023-05-07T04:07:58;99811.66;;;15.84
66604;BMP280;53460;39.612;8.822;2023-05-07T04:10:29;99840.69;;;16.42
66604;BMP280;53460;39.612;8.822;2023-05-07T04:12:56;99855.63;;;16.47
66604;BMP280;53460;39.612;8.822;2023-05-07T04:15:24;99859.88;;;16.56
66604;BMP280;53460;39.612;8.822;2023-05-07T04:17:50;99871.78;;;16.77
66604;BMP280;53460;39.612;8.822;2023-05-07T04:20:18;99881.03;;;16.98
66604;BMP280;53460;39.612;8.822;2023-05-07T04:22:48;99883.16;;;17.03
66604;BMP280;53460;39.612;8.822;2023-05-07T04:25:15;99885.97;;;17.07
66604;BMP280;53460;39.612;8.822;2023-05-07T04:27:41;99892.72;;;17.08
66604;BMP280;53460;39.612;8.822;2023-05-07T04:30:07;99891.38;;;17.07
66604;BMP280;53460;39.612;8.822;2023-05-07T04:32:37;99903.53;;;17.10
66604;BMP280;53460;39.612;8.822;2023-05-07T04:35:03;99895.56;;;17.14
66604;BMP280;53460;39.612;8.822;2023-05-07T04:37:32;99903.63;;;17.14
66604;BMP280;53460;39.612;8.822;2023-05-07T04:39:58;99911.13;;;17.18
66604;BMP280;53460;39.612;8.822;2023-05-07T04:42:23;99919.31;;;17.22
66604;BMP280;53460;39.612;8.822;2023-05-07T04:44:53;99914.09;;;17.30
66604;BMP280;53460;39.612;8.822;2023-05-07T04:47:19;99916.88;;;17.34
66604;BMP280;53460;39.612;8.822;2023-05-07T04:49:45;99926.41;;;17.37
66604;BMP280;53460;39.612;8.822;2023-05-07T04:52:11;99933.81;;;17.39
66604;BMP280;53460;39.612;8.822;2023-05-07T04:54:37;99934.03;;;17.49
66604;BMP280;53460;39.612;8.822;2023-05-07T04:57:03;99933.44;;;17.52
66604;BMP280;53460;39.612;8.822;2023-05-07T04:59:30;99939.63;;;17.57
66604;BMP280;53460;39.612;8.822;2023-05-07T05:01:56;99943.09;;;17.64
66604;BMP280;53460;39.612;8.822;2023-05-07T05:04:23;99953.13;;;17.59
66604;BMP280;53460;39.612;8.822;2023-05-07T05:06:49;99952.78;;;17.75
66604;BMP280;53460;39.612;8.822;2023-05-07T05:09:15;99961.66;;;17.79
66604;BMP280;53460;39.612;8.822;2023-05-07T05:11:41;99965.72;;;17.80
66604;BMP280;53460;39.612;8.822;2023-05-07T05:14:07;99966.63;;;17.93
66604;BMP280;53460;39.612;8.822;2023-05-07T05:16:33;99973.63;;;18.04
66604;BMP280;53460;39.612;8.822;2023-05-07T05:18:59;99969.59;;;18.07
66604;BMP280;53460;39.612;8.822;2023-05-07T05:21:25;99973.22;;;18.20
66604;BMP280;53460;39.612;8.822;2023-05-07T05:23:55;99989.03;;;18.36
66604;BMP280;53460;39.612;8.822;2023-05-07T05:26:23;99982.38;;;18.41
66604;BMP280;53460;39.612;8.822;2023-05-07T05:28:50;99978.25;;;18.36
66604;BMP280;53460;39.612;8.822;2023-05-07T05:31:19;99985.22;;;18.49
66604;BMP280;53460;39.612;8.822;2023-05-07T05:33:45;99988.94;;;18.70
66604;BMP280;53460;39.612;8.822;2023-05-07T05:36:11;100003.91;;;18.77
66604;BMP280;53460;39.612;8.822;2023-05-07T05:38:39;100002.78;;;18.90
66604;BMP280;53460;39.612;8.822;2023-05-07T05:41:05;100011.69;;;18.97
66604;BMP280;53460;39.612;8.822;2023-05-07T05:43:31;100016.03;;;19.16
66604;BMP280;53460;39.612;8.822;2023-05-07T05:45:57;100016.66;;;19.14
66604;BMP280;53460;39.612;8.822;2023-05-07T05:48:24;100018.44;;;19.40
66604;BMP280;53460;39.612;8.822;2023-05-07T05:50:50;100018.59;;;19.54
66604;BMP280;53460;39.612;8.822;2023-05-07T05:53:17;100018.25;;;19.80
66604;BMP280;53460;39.612;8.822;2023-05-07T05:55:43;100030.31;;;20.29
66604;BMP280;53460;39.612;8.822;2023-05-07T05:58:11;100027.88;;;20.57
66604;BMP280;53460;39.612;8.822;2023-05-07T06:00:40;100053.16;;;22.01
66604;BMP280;53460;39.612;8.822;2023-05-07T06:03:06;100064.16;;;22.99
66604;BMP280;53460;39.612;8.822;2023-05-07T06:05:33;100066.53;;;21.51
66604;BMP280;53460;39.612;8.822;2023-05-07T06:07:59;100070.00;;;21.71
66604;BMP280;53460;39.612;8.822;2023-05-07T06:10:29;100085.25;;;22.76
66604;BMP280;53460;39.612;8.822;2023-05-07T06:12:56;100103.84;;;24.24
66604;BMP280;53460;39.612;8.822;2023-05-07T06:15:22;100118.78;;;24.33
66604;BMP280;53460;39.612;8.822;2023-05-07T06:17:47;100116.25;;;24.05
66604;BMP280;53460;39.612;8.822;2023-05-07T06:20:14;100126.34;;;24.24
66604;BMP280;53460;39.612;8.822;2023-05-07T06:22:40;100131.28;;;24.97
66604;BMP280;53460;39.612;8.822;2023-05-07T06:25:07;100130.88;;;25.38
66604;BMP280;53460;39.612;8.822;2023-05-07T06:27:33;100138.72;;;25.01
66604;BMP280;53460;39.612;8.822;2023-05-07T06:29:59;100141.41;;;25.72
66604;BMP280;53460;39.612;8.822;2023-05-07T06:32:24;100140.38;;;25.43
66604;BMP280;53460;39.612;8.822;2023-05-07T06:34:51;100152.47;;;26.15
66604;BMP280;53460;39.612;8.822;2023-05-07T06:37:16;100154.66;;;26.95
66604;BMP280;53460;39.612;8.822;2023-05-07T06:39:51;100151.19;;;26.57
66604;BMP280;53460;39.612;8.822;2023-05-07T06:42:16;100141.31;;;25.19
66604;BMP280;53460;39.612;8.822;2023-05-07T06:44:45;100145.88;;;24.65
66604;BMP280;53460;39.612;8.822;2023-05-07T06:47:13;100130.75;;;23.38
66604;BMP280;53460;39.612;8.822;2023-05-07T06:49:39;100123.31;;;22.88
66604;BMP280;53460;39.612;8.822;2023-05-07T06:52:05;100119.88;;;22.51
66604;BMP280;53460;39.612;8.822;2023-05-07T06:54:31;100111.75;;;23.08
66604;BMP280;53460;39.612;8.822;2023-05-07T06:56:57;100105.63;;;22.95
66604;BMP280;53460;39.612;8.822;2023-05-07T06:59:25;100114.47;;;23.10
66604;BMP280;53460;39.612;8.822;2023-05-07T07:01:52;100105.56;;;22.40
66604;BMP280;53460;39.612;8.822;2023-05-07T07:04:18;100102.22;;;22.72
66604;BMP280;53460;39.612;8.822;2023-05-07T07:06:54;100096.13;;;22.86
66604;BMP280;53460;39.612;8.822;2023-05-07T07:09:20;100105.63;;;23.17
66604;BMP280;53460;39.612;8.822;2023-05-07T07:11:46;100089.97;;;22.85
66604;BMP280;53460;39.612;8.822;2023-05-07T07:14:11;100098.13;;;22.69
66604;BMP280;53460;39.612;8.822;2023-05-07T07:16:44;100084.56;;;22.75
66604;BMP280;53460;39.612;8.822;2023-05-07T07:19:12;100087.22;;;23.30
66604;BMP280;53460;39.612;8.822;2023-05-07T07:21:41;100091.84;;;23.70
66604;BMP280;53460;39.612;8.822;2023-05-07T07:24:07;100093.25;;;23.65
66604;BMP280;53460;39.612;8.822;2023-05-07T07:26:34;100100.69;;;23.75
66604;BMP280;53460;39.612;8.822;2023-05-07T07:29:00;100091.81;;;23.86
66604;BMP280;53460;39.612;8.822;2023-05-07T07:31:25;100094.53;;;23.82
66604;BMP280;53460;39.612;8.822;2023-05-07T07:33:51;100101.25;;;24.04
66604;BMP280;53460;39.612;8.822;2023-05-07T07:36:17;100108.59;;;24.27
66604;BMP280;53460;39.612;8.822;2023-05-07T07:38:43;100099.06;;;24.26
66604;BMP280;53460;39.612;8.822;2023-05-07T07:41:08;100099.53;;;24.57
66604;BMP280;53460;39.612;8.822;2023-05-07T07:43:35;100095.00;;;24.21
66604;BMP280;53460;39.612;8.822;2023-05-07T07:46:01;100091.41;;;24.49
66604;BMP280;53460;39.612;8.822;2023-05-07T07:48:27;100089.41;;;24.48
66604;BMP280;53460;39.612;8.822;2023-05-07T07:50:54;100093.63;;;24.26
66604;BMP280;53460;39.612;8.822;2023-05-07T07:53:19;100096.16;;;24.55
66604;BMP280;53460;39.612;8.822;2023-05-07T07:55:45;100093.56;;;24.32
66604;BMP280;53460;39.612;8.822;2023-05-07T07:58:15;100095.38;;;24.68
66604;BMP280;53460;39.612;8.822;2023-05-07T08:00:41;100089.03;;;24.88
66604;BMP280;53460;39.612;8.822;2023-05-07T08:03:09;100083.03;;;24.73
66604;BMP280;53460;39.612;8.822;2023-05-07T08:05:38;100079.97;;;25.10
66604;BMP280;53460;39.612;8.822;2023-05-07T08:08:05;100079.50;;;25.50
66604;BMP280;53460;39.612;8.822;2023-05-07T08:10:33;100082.31;;;24.79
66604;BMP280;53460;39.612;8.822;2023-05-07T08:13:08;100088.31;;;24.96
66604;BMP280;53460;39.612;8.822;2023-05-07T08:15:35;100094.38;;;25.02
66604;BMP280;53460;39.612;8.822;2023-05-07T08:18:02;100084.00;;;25.17
66604;BMP280;53460;39.612;8.822;2023-05-07T08:20:28;100076.84;;;25.46
66604;BMP280;53460;39.612;8.822;2023-05-07T08:22:55;100097.88;;;25.56
66604;BMP280;53460;39.612;8.822;2023-05-07T08:25:21;100100.53;;;25.62
66604;BMP280;53460;39.612;8.822;2023-05-07T08:27:47;100093.84;;;25.49
66604;BMP280;53460;39.612;8.822;2023-05-07T08:30:14;100083.75;;;25.37
66604;BMP280;53460;39.612;8.822;2023-05-07T08:32:39;100098.84;;;25.87
66604;BMP280;53460;39.612;8.822;2023-05-07T08:35:05;100096.47;;;25.59
66604;BMP280;53460;39.612;8.822;2023-05-07T08:37:31;100086.13;;;25.68
66604;BMP280;53460;39.612;8.822;2023-05-07T08:39:58;100081.72;;;25.91
66604;BMP280;53460;39.612;8.822;2023-05-07T08:42:29;100080.44;;;26.31
66604;BMP280;53460;39.612;8.822;2023-05-07T08:44:57;100088.75;;;26.23
66604;BMP280;53460;39.612;8.822;2023-05-07T08:47:29;100081.53;;;26.05
66604;BMP280;53460;39.612;8.822;2023-05-07T08:49:59;100077.19;;;26.61
66604;BMP280;53460;39.612;8.822;2023-05-07T08:52:25;100070.78;;;26.36
66604;BMP280;53460;39.612;8.822;2023-05-07T08:54:52;100083.03;;;26.39
66604;BMP280;53460;39.612;8.822;2023-05-07T08:57:18;100072.84;;;26.74
66604;BMP280;53460;39.612;8.822;2023-05-07T08:59:46;100063.22;;;27.14
66604;BMP280;53460;39.612;8.822;2023-05-07T09:02:11;100068.69;;;27.49
66604;BMP280;53460;39.612;8.822;2023-05-07T09:04:38;100058.31;;;26.84
66604;BMP280;53460;39.612;8.822;2023-05-07T09:07:04;100063.63;;;26.94
66604;BMP280;53460;39.612;8.822;2023-05-07T09:09:33;100060.63;;;27.06
66604;BMP280;53460;39.612;8.822;2023-05-07T09:12:00;100044.97;;;27.36
66604;BMP280;53460;39.612;8.822;2023-05-07T09:14:30;100049.34;;;27.25
66604;BMP280;53460;39.612;8.822;2023-05-07T09:16:56;100053.22;;;27.01
66604;BMP280;53460;39.612;8.822;2023-05-07T09:19:23;100049.97;;;26.90
66604;BMP280;53460;39.612;8.822;2023-05-07T09:21:58;100039.78;;;27.22
66604;BMP280;53460;39.612;8.822;2023-05-07T09:24:24;100050.81;;;28.12
66604;BMP280;53460;39.612;8.822;2023-05-07T09:26:50;100051.00;;;27.73
66604;BMP280;53460;39.612;8.822;2023-05-07T09:29:16;100054.63;;;27.66
66604;BMP280;53460;39.612;8.822;2023-05-07T09:31:42;100054.84;;;27.56
66604;BMP280;53460;39.612;8.822;2023-05-07T09:34:11;100045.78;;;27.92
66604;BMP280;53460;39.612;8.822;2023-05-07T09:36:40;100037.44;;;26.66
66604;BMP280;53460;39.612;8.822;2023-05-07T09:39:05;100054.84;;;27.56
66604;BMP280;53460;39.612;8.822;2023-05-07T09:41:32;100044.16;;;27.41
66604;BMP280;53460;39.612;8.822;2023-05-07T09:44:09;100040.34;;;27.90
66604;BMP280;53460;39.612;8.822;2023-05-07T09:46:44;100046.94;;;28.28
66604;BMP280;53460;39.612;8.822;2023-05-07T09:49:23;100045.97;;;28.66
66604;BMP280;53460;39.612;8.822;2023-05-07T09:51:56;100053.31;;;28.47
66604;BMP280;53460;39.612;8.822;2023-05-07T09:54:24;100057.84;;;28.84
66604;BMP280;53460;39.612;8.822;2023-05-07T09:56:53;100048.28;;;28.02
66604;BMP280;53460;39.612;8.822;2023-05-07T09:59:23;100051.31;;;27.59
66604;BMP280;53460;39.612;8.822;2023-05-07T10:01:51;100048.00;;;28.41
66604;BMP280;53460;39.612;8.822;2023-05-07T10:04:18;100047.66;;;28.80
66604;BMP280;53460;39.612;8.822;2023-05-07T10:06:46;100053.00;;;28.86
66604;BMP280;53460;39.612;8.822;2023-05-07T10:09:12;100065.81;;;28.69
66604;BMP280;53460;39.612;8.822;2023-05-07T10:11:39;100052.25;;;28.63
66604;BMP280;53460;39.612;8.822;2023-05-07T10:14:06;100063.00;;;29.21
66604;BMP280;53460;39.612;8.822;2023-05-07T10:16:35;100053.50;;;29.40
66604;BMP280;53460;39.612;8.822;2023-05-07T10:19:05;100046.69;;;29.60
66604;BMP280;53460;39.612;8.822;2023-05-07T10:21:35;100047.78;;;29.24
66604;BMP280;53460;39.612;8.822;2023-05-07T10:24:25;100046.88;;;29.97
66604;BMP280;53460;39.612;8.822;2023-05-07T10:26:53;100060.94;;;28.96
66604;BMP280;53460;39.612;8.822;2023-05-07T10:32:19;100050.97;;;28.33
66604;BMP280;53460;39.612;8.822;2023-05-07T10:34:53;100055.19;;;28.82
66604;BMP280;53460;39.612;8.822;2023-05-07T10:37:20;100048.81;;;28.62
66604;BMP280;53460;39.612;8.822;2023-05-07T10:39:47;100040.47;;;28.91
66604;BMP280;53460;39.612;8.822;2023-05-07T10:42:14;100035.63;;;29.62
66604;BMP280;53460;39.612;8.822;2023-05-07T10:44:46;100050.47;;;29.71
66604;BMP280;53460;39.612;8.822;2023-05-07T10:47:19;100046.38;;;29.91
66604;BMP280;53460;39.612;8.822;2023-05-07T10:52:24;100067.41;;;29.11
66604;BMP280;53460;39.612;8.822;2023-05-07T10:57:45;100078.50;;;29.30
66604;BMP280;53460;39.612;8.822;2023-05-07T11:03:05;100088.72;;;30.02
66604;BMP280;53460;39.612;8.822;2023-05-07T11:05:38;100070.09;;;29.36
66604;BMP280;53460;39.612;8.822;2023-05-07T11:08:24;100078.59;;;29.28
66604;BMP280;53460;39.612;8.822;2023-05-07T11:11:07;100081.28;;;29.53
66604;BMP280;53460;39.612;8.822;2023-05-07T11:13:48;100072.56;;;29.46
66604;BMP280;53460;39.612;8.822;2023-05-07T11:16:44;100074.78;;;29.63
66604;BMP280;53460;39.612;8.822;2023-05-07T11:19:48;100064.91;;;29.72
66604;BMP280;53460;39.612;8.822;2023-05-07T11:25:23;100069.41;;;29.58
66604;BMP280;53460;39.612;8.822;2023-05-07T11:28:12;100047.28;;;30.27
66604;BMP280;53460;39.612;8.822;2023-05-07T11:30:52;100044.81;;;30.58
66604;BMP280;53460;39.612;8.822;2023-05-07T11:33:19;100048.84;;;30.20
66604;BMP280;53460;39.612;8.822;2023-05-07T11:35:47;100037.13;;;30.42
66604;BMP280;53460;39.612;8.822;2023-05-07T11:38:15;100020.91;;;30.32
66604;BMP280;53460;39.612;8.822;2023-05-07T11:40:50;100029.75;;;30.16
66604;BMP280;53460;39.612;8.822;2023-05-07T11:43:16;100034.06;;;30.11
66604;BMP280;53460;39.612;8.822;2023-05-07T11:45:42;100020.81;;;30.36
66604;BMP280;53460;39.612;8.822;2023-05-07T11:48:08;100029.84;;;29.49
66604;BMP280;53460;39.612;8.822;2023-05-07T11:50:33;100008.91;;;30.02
66604;BMP280;53460;39.612;8.822;2023-05-07T11:52:59;100009.81;;;30.92
66604;BMP280;53460;39.612;8.822;2023-05-07T11:55:25;100015.22;;;30.57
66604;BMP280;53460;39.612;8.822;2023-05-07T11:57:51;100005.25;;;30.08
66604;BMP280;53460;39.612;8.822;2023-05-07T12:00:17;100004.44;;;30.11
66604;BMP280;53460;39.612;8.822;2023-05-07T12:02:45;100002.06;;;30.59
66604;BMP280;53460;39.612;8.822;2023-05-07T12:05:11;99991.34;;;30.51
66604;BMP280;53460;39.612;8.822;2023-05-07T12:07:36;100008.44;;;30.54
66604;BMP280;53460;39.612;8.822;2023-05-07T12:10:06;100000.50;;;30.83
66604;BMP280;53460;39.612;8.822;2023-05-07T12:12:38;99997.41;;;31.10
66604;BMP280;53460;39.612;8.822;2023-05-07T12:15:05;99993.41;;;30.69
66604;BMP280;53460;39.612;8.822;2023-05-07T12:17:31;99995.13;;;30.79
66604;BMP280;53460;39.612;8.822;2023-05-07T12:19:57;99994.16;;;30.68
66604;BMP280;53460;39.612;8.822;2023-05-07T12:22:23;99994.22;;;31.03
66604;BMP280;53460;39.612;8.822;2023-05-07T12:24:56;100001.75;;;30.86
66604;BMP280;53460;39.612;8.822;2023-05-07T12:27:22;100006.53;;;30.11
66604;BMP280;53460;39.612;8.822;2023-05-07T12:29:49;100000.81;;;30.17
66604;BMP280;53460;39.612;8.822;2023-05-07T12:32:16;99993.50;;;30.09
66604;BMP280;53460;39.612;8.822;2023-05-07T12:34:46;99991.34;;;29.91
66604;BMP280;53460;39.612;8.822;2023-05-07T12:37:12;99998.69;;;29.11
66604;BMP280;53460;39.612;8.822;2023-05-07T12:39:42;100003.75;;;29.48
66604;BMP280;53460;39.612;8.822;2023-05-07T12:42:15;100009.41;;;29.65
66604;BMP280;53460;39.612;8.822;2023-05-07T12:44:41;99998.81;;;29.30
66604;BMP280;53460;39.612;8.822;2023-05-07T12:47:07;100013.34;;;29.49
66604;BMP280;53460;39.612;8.822;2023-05-07T12:49:34;100005.22;;;29.00
66604;BMP280;53460;39.612;8.822;2023-05-07T12:52:03;100001.38;;;29.13
66604;BMP280;53460;39.612;8.822;2023-05-07T12:54:35;99996.34;;;29.43
66604;BMP280;53460;39.612;8.822;2023-05-07T12:57:09;99997.75;;;29.42
66604;BMP280;53460;39.612;8.822;2023-05-07T12:59:37;100003.81;;;29.24
66604;BMP280;53460;39.612;8.822;2023-05-07T13:02:03;99988.00;;;29.24
66604;BMP280;53460;39.612;8.822;2023-05-07T13:04:29;99995.38;;;29.07
66604;BMP280;53460;39.612;8.822;2023-05-07T13:06:55;99994.59;;;29.10
66604;BMP280;53460;39.612;8.822;2023-05-07T13:09:20;100001.41;;;28.64
66604;BMP280;53460;39.612;8.822;2023-05-07T13:11:46;99984.63;;;28.99
66604;BMP280;53460;39.612;8.822;2023-05-07T13:14:12;99981.28;;;28.47
66604;BMP280;53460;39.612;8.822;2023-05-07T13:16:38;99980.59;;;28.73
66604;BMP280;53460;39.612;8.822;2023-05-07T13:19:04;99987.81;;;28.85
66604;BMP280;53460;39.612;8.822;2023-05-07T13:21:30;99974.25;;;28.54
66604;BMP280;53460;39.612;8.822;2023-05-07T13:23:57;99970.25;;;28.22
66604;BMP280;53460;39.612;8.822;2023-05-07T13:26:24;99976.91;;;28.56
66604;BMP280;53460;39.612;8.822;2023-05-07T13:28:49;99981.13;;;28.77
66604;BMP280;53460;39.612;8.822;2023-05-07T13:31:17;99981.78;;;28.53
66604;BMP280;53460;39.612;8.822;2023-05-07T13:33:42;99977.75;;;27.99
66604;BMP280;53460;39.612;8.822;2023-05-07T13:36:08;99975.06;;;27.68
66604;BMP280;53460;39.612;8.822;2023-05-07T13:38:34;99973.34;;;28.37
66604;BMP280;53460;39.612;8.822;2023-05-07T13:41:00;99968.66;;;28.04
66604;BMP280;53460;39.612;8.822;2023-05-07T13:43:26;99976.91;;;27.75
66604;BMP280;53460;39.612;8.822;2023-05-07T13:45:52;99962.31;;;27.25
66604;BMP280;53460;39.612;8.822;2023-05-07T13:48:17;99975.75;;;27.66
66604;BMP280;53460;39.612;8.822;2023-05-07T13:50:43;99954.03;;;27.87
66604;BMP280;53460;39.612;8.822;2023-05-07T13:53:09;99952.53;;;27.92
66604;BMP280;53460;39.612;8.822;2023-05-07T13:55:34;99955.38;;;27.88
66604;BMP280;53460;39.612;8.822;2023-05-07T13:58:01;99943.44;;;27.42
66604;BMP280;53460;39.612;8.822;2023-05-07T14:00:28;99950.81;;;27.49
66604;BMP280;53460;39.612;8.822;2023-05-07T14:02:55;99946.16;;;27.42
66604;BMP280;53460;39.612;8.822;2023-05-07T14:05:21;99942.91;;;27.64
66604;BMP280;53460;39.612;8.822;2023-05-07T14:07:51;99946.63;;;27.52
66604;BMP280;53460;39.612;8.822;2023-05-07T14:10:18;99942.69;;;27.45
66604;BMP280;53460;39.612;8.822;2023-05-07T14:12:44;99940.75;;;27.40
66604;BMP280;53460;39.612;8.822;2023-05-07T14:15:12;99938.59;;;27.44
66604;BMP280;53460;39.612;8.822;2023-05-07T14:17:38;99938.94;;;27.30
66604;BMP280;53460;39.612;8.822;2023-05-07T14:20:04;99929.03;;;27.12
66604;BMP280;53460;39.612;8.822;2023-05-07T14:22:31;99935.59;;;26.95
66604;BMP280;53460;39.612;8.822;2023-05-07T14:24:57;99932.56;;;27.38